sensor_id;sensor_type;location;lat;lon;timestamp;P1;durP1;ratioP1;P2;durP2;ratioP2
25155;SDS011;21913;52.456;13.634;2023-02-28T00:00:03;2.22;;;1.45;;
25155;SDS011;21913;52.456;13.634;2023-02-28T00:05:07;3.13;;;1.60;;
25155;SDS011;21913;52.456;13.634;2023-02-28T00:10:10;2.60;;;1.40;;
25155;SDS011;21913;52.456;13.634;2023-02-28T00:15:14;2.00;;;1.35;;
25155;SDS011;21913;52.456;13.634;2023-02-28T00:20:15;2.60;;;1.58;;
25155;SDS011;21913;52.456;13.634;2023-02-28T00:25:20;3.15;;;1.60;;
25155;SDS011;21913;52.456;13.634;2023-02-28T00:30:24;2.53;;;1.60;;
25155;SDS011;21913;52.456;13.634;2023-02-28T00:35:25;3.13;;;1.63;;
25155;SDS011;21913;52.456;13.634;2023-02-28T00:40:27;3.25;;;1.65;;
25155;SDS011;21913;52.456;13.634;2023-02-28T00:45:29;2.83;;;1.48;;
25155;SDS011;21913;52.456;13.634;2023-02-28T00:50:31;2.60;;;1.50;;
25155;SDS011;21913;52.456;13.634;2023-02-28T00:55:34;3.63;;;1.60;;
25155;SDS011;21913;52.456;13.634;2023-02-28T01:00:35;2.33;;;1.48;;
25155;SDS011;21913;52.456;13.634;2023-02-28T01:05:37;2.40;;;1.50;;
25155;SDS011;21913;52.456;13.634;2023-02-28T01:10:39;3.03;;;1.30;;
25155;SDS011;21913;52.456;13.634;2023-02-28T01:15:43;2.38;;;1.50;;
25155;SDS011;21913;52.456;13.634;2023-02-28T01:20:50;4.72;;;1.50;;
25155;SDS011;21913;52.456;13.634;2023-02-28T01:25:52;2.35;;;1.30;;
25155;SDS011;21913;52.456;13.634;2023-02-28T01:30:56;2.38;;;1.30;;
25155;SDS011;21913;52.456;13.634;2023-02-28T01:36:00;2.33;;;1.30;;
25155;SDS011;21913;52.456;13.634;2023-02-28T01:41:03;3.33;;;1.35;;
25155;SDS011;21913;52.456;13.634;2023-02-28T01:46:06;2.92;;;1.42;;
25155;SDS011;21913;52.456;13.634;2023-02-28T01:51:09;2.95;;;1.35;;
25155;SDS011;21913;52.456;13.634;2023-02-28T01:56:16;3.28;;;1.30;;
25155;SDS011;21913;52.456;13.634;2023-02-28T02:01:23;1.83;;;1.20;;
25155;SDS011;21913;52.456;13.634;2023-02-28T02:06:29;2.42;;;1.10;;
25155;SDS011;21913;52.456;13.634;2023-02-28T02:11:35;1.70;;;0.95;;
25155;SDS011;21913;52.456;13.634;2023-02-28T02:22:03;2.70;;;1.33;;
25155;SDS011;21913;52.456;13.634;2023-02-28T02:27:23;2.88;;;1.38;;
25155;SDS011;21913;52.456;13.634;2023-02-28T02:32:49;1.95;;;1.20;;
25155;SDS011;21913;52.456;13.634;2023-02-28T02:38:29;2.00;;;1.20;;
25155;SDS011;21913;52.456;13.634;2023-02-28T02:49:19;1.88;;;1.20;;
25155;SDS011;21913;52.456;13.634;2023-02-28T02:54:29;2.10;;;1.15;;
25155;SDS011;21913;52.456;13.634;2023-02-28T02:59:35;1.87;;;1.27;;
25155;SDS011;21913;52.456;13.634;2023-02-28T03:04:42;1.55;;;1.10;;
25155;SDS011;21913;52.456;13.634;2023-02-28T03:09:53;2.00;;;1.13;;
25155;SDS011;21913;52.456;13.634;2023-02-28T03:20:35;2.10;;;1.30;;
25155;SDS011;21913;52.456;13.634;2023-02-28T03:25:44;2.00;;;1.17;;
25155;SDS011;21913;52.456;13.634;2023-02-28T03:31:08;3.38;;;1.35;;
25155;SDS011;21913;52.456;13.634;2023-02-28T03:36:17;3.15;;;1.30;;
25155;SDS011;21913;52.456;13.634;2023-02-28T03:41:22;2.03;;;1.30;;
25155;SDS011;21913;52.456;13.634;2023-02-28T03:46:32;2.63;;;1.55;;
25155;SDS011;21913;52.456;13.634;2023-02-28T03:51:40;1.85;;;1.13;;
25155;SDS011;21913;52.456;13.634;2023-02-28T03:56:45;2.10;;;1.30;;
25155;SDS011;21913;52.456;13.634;2023-02-28T04:01:52;3.05;;;1.48;;
25155;SDS011;21913;52.456;13.634;2023-02-28T04:07:00;2.13;;;1.20;;
25155;SDS011;21913;52.456;13.634;2023-02-28T04:12:04;2.50;;;1.15;;
25155;SDS011;21913;52.456;13.634;2023-02-28T04:17:06;3.33;;;1.33;;
25155;SDS011;21913;52.456;13.634;2023-02-28T04:22:08;2.72;;;1.25;;
25155;SDS011;21913;52.456;13.634;2023-02-28T04:27:10;2.90;;;1.17;;
25155;SDS011;21913;52.456;13.634;2023-02-28T04:32:12;2.03;;;1.17;;
25155;SDS011;21913;52.456;13.634;2023-02-28T04:37:14;3.67;;;1.23;;
25155;SDS011;21913;52.456;13.634;2023-02-28T04:42:15;2.42;;;1.30;;
25155;SDS011;21913;52.456;13.634;2023-02-28T04:47:17;2.22;;;1.27;;
25155;SDS011;21913;52.456;13.634;2023-02-28T04:52:19;2.05;;;1.20;;
25155;SDS011;21913;52.456;13.634;2023-02-28T04:57:21;2.78;;;1.20;;
25155;SDS011;21913;52.456;13.634;2023-02-28T05:02:22;4.35;;;1.27;;
25155;SDS011;21913;52.456;13.634;2023-02-28T05:07:24;2.28;;;1.20;;
25155;SDS011;21913;52.456;13.634;2023-02-28T05:12:26;3.38;;;1.50;;
25155;SDS011;21913;52.456;13.634;2023-02-28T05:17:28;2.42;;;1.30;;
25155;SDS011;21913;52.456;13.634;2023-02-28T05:22:29;2.65;;;1.30;;
25155;SDS011;21913;52.456;13.634;2023-02-28T05:27:31;2.42;;;1.20;;
25155;SDS011;21913;52.456;13.634;2023-02-28T05:32:33;3.60;;;1.42;;
25155;SDS011;21913;52.456;13.634;2023-02-28T05:37:35;2.42;;;1.40;;
25155;SDS011;21913;52.456;13.634;2023-02-28T05:42:37;6.28;;;1.40;;
25155;SDS011;21913;52.456;13.634;2023-02-28T05:47:39;2.10;;;1.48;;
25155;SDS011;21913;52.456;13.634;2023-02-28T05:52:40;2.70;;;1.30;;
25155;SDS011;21913;52.456;13.634;2023-02-28T05:57:42;4.13;;;1.40;;
25155;SDS011;21913;52.456;13.634;2023-02-28T06:02:44;4.18;;;1.50;;
25155;SDS011;21913;52.456;13.634;2023-02-28T06:07:45;3.67;;;1.70;;
25155;SDS011;21913;52.456;13.634;2023-02-28T06:12:47;3.95;;;1.60;;
25155;SDS011;21913;52.456;13.634;2023-02-28T06:17:49;2.60;;;1.60;;
25155;SDS011;21913;52.456;13.634;2023-02-28T06:22:50;3.83;;;1.52;;
25155;SDS011;21913;52.456;13.634;2023-02-28T06:27:52;3.78;;;1.48;;
25155;SDS011;21913;52.456;13.634;2023-02-28T06:32:55;3.88;;;1.58;;
25155;SDS011;21913;52.456;13.634;2023-02-28T06:37:56;2.28;;;1.52;;
25155;SDS011;21913;52.456;13.634;2023-02-28T06:42:58;2.65;;;1.58;;
25155;SDS011;21913;52.456;13.634;2023-02-28T06:48:00;2.88;;;1.60;;
25155;SDS011;21913;52.456;13.634;2023-02-28T06:53:02;2.60;;;1.52;;
25155;SDS011;21913;52.456;13.634;2023-02-28T06:58:03;3.78;;;1.90;;
25155;SDS011;21913;52.456;13.634;2023-02-28T07:03:05;2.60;;;1.55;;
25155;SDS011;21913;52.456;13.634;2023-02-28T07:08:07;3.47;;;1.73;;
25155;SDS011;21913;52.456;13.634;2023-02-28T07:13:08;3.50;;;1.75;;
25155;SDS011;21913;52.456;13.634;2023-02-28T07:18:10;3.20;;;1.80;;
25155;SDS011;21913;52.456;13.634;2023-02-28T07:23:12;3.20;;;1.77;;
25155;SDS011;21913;52.456;13.634;2023-02-28T07:28:14;3.72;;;1.70;;
25155;SDS011;21913;52.456;13.634;2023-02-28T07:33:16;3.20;;;1.60;;
25155;SDS011;21913;52.456;13.634;2023-02-28T07:38:17;2.92;;;1.73;;
25155;SDS011;21913;52.456;13.634;2023-02-28T07:43:19;4.82;;;1.77;;
25155;SDS011;21913;52.456;13.634;2023-02-28T07:48:21;2.67;;;1.60;;
25155;SDS011;21913;52.456;13.634;2023-02-28T07:53:22;2.65;;;1.48;;
25155;SDS011;21913;52.456;13.634;2023-02-28T07:58:24;3.28;;;1.60;;
25155;SDS011;21913;52.456;13.634;2023-02-28T08:03:27;2.97;;;1.63;;
25155;SDS011;21913;52.456;13.634;2023-02-28T08:08:28;3.28;;;1.90;;
25155;SDS011;21913;52.456;13.634;2023-02-28T08:13:30;3.28;;;1.90;;
25155;SDS011;21913;52.456;13.634;2023-02-28T08:18:32;2.65;;;1.70;;
25155;SDS011;21913;52.456;13.634;2023-02-28T08:23:34;3.17;;;1.65;;
25155;SDS011;21913;52.456;13.634;2023-02-28T08:28:36;2.60;;;1.52;;
25155;SDS011;21913;52.456;13.634;2023-02-28T08:33:38;2.65;;;1.52;;
25155;SDS011;21913;52.456;13.634;2023-02-28T08:38:40;14.98;;;2.35;;
25155;SDS011;21913;52.456;13.634;2023-02-28T08:43:41;19.60;;;2.45;;
25155;SDS011;21913;52.456;13.634;2023-02-28T08:48:43;15.55;;;2.08;;
25155;SDS011;21913;52.456;13.634;2023-02-28T08:53:45;13.10;;;2.72;;
25155;SDS011;21913;52.456;13.634;2023-02-28T08:58:47;7.13;;;1.90;;
25155;SDS011;21913;52.456;13.634;2023-02-28T09:03:50;7.82;;;1.90;;
25155;SDS011;21913;52.456;13.634;2023-02-28T09:08:52;17.58;;;2.42;;
25155;SDS011;21913;52.456;13.634;2023-02-28T09:13:54;8.18;;;2.10;;
25155;SDS011;21913;52.456;13.634;2023-02-28T09:18:56;10.10;;;1.90;;
25155;SDS011;21913;52.456;13.634;2023-02-28T09:23:58;7.40;;;2.13;;
25155;SDS011;21913;52.456;13.634;2023-02-28T09:28:59;7.85;;;1.80;;
25155;SDS011;21913;52.456;13.634;2023-02-28T09:34:01;4.35;;;1.63;;
25155;SDS011;21913;52.456;13.634;2023-02-28T09:39:03;9.48;;;1.70;;
25155;SDS011;21913;52.456;13.634;2023-02-28T09:44:05;8.32;;;1.88;;
25155;SDS011;21913;52.456;13.634;2023-02-28T09:49:16;9.52;;;1.65;;
25155;SDS011;21913;52.456;13.634;2023-02-28T09:54:21;11.52;;;1.65;;
25155;SDS011;21913;52.456;13.634;2023-02-28T09:59:39;8.75;;;1.90;;
25155;SDS011;21913;52.456;13.634;2023-02-28T10:09:58;5.03;;;1.60;;
25155;SDS011;21913;52.456;13.634;2023-02-28T10:15:03;6.68;;;1.52;;
25155;SDS011;21913;52.456;13.634;2023-02-28T10:20:07;8.20;;;1.65;;
25155;SDS011;21913;52.456;13.634;2023-02-28T10:25:18;4.85;;;1.58;;
25155;SDS011;21913;52.456;13.634;2023-02-28T10:30:30;3.80;;;1.60;;
25155;SDS011;21913;52.456;13.634;2023-02-28T10:35:32;4.57;;;1.58;;
25155;SDS011;21913;52.456;13.634;2023-02-28T10:40:34;3.17;;;1.30;;
25155;SDS011;21913;52.456;13.634;2023-02-28T10:45:37;4.30;;;1.52;;
25155;SDS011;21913;52.456;13.634;2023-02-28T10:56:06;5.03;;;1.55;;
25155;SDS011;21913;52.456;13.634;2023-02-28T11:01:20;4.70;;;1.40;;
25155;SDS011;21913;52.456;13.634;2023-02-28T11:06:23;3.70;;;1.42;;
25155;SDS011;21913;52.456;13.634;2023-02-28T11:11:29;3.88;;;1.40;;
25155;SDS011;21913;52.456;13.634;2023-02-28T11:16:42;4.57;;;1.50;;
25155;SDS011;21913;52.456;13.634;2023-02-28T11:21:46;3.83;;;1.40;;
25155;SDS011;21913;52.456;13.634;2023-02-28T11:26:54;5.30;;;1.40;;
25155;SDS011;21913;52.456;13.634;2023-02-28T11:37:28;3.92;;;1.30;;
25155;SDS011;21913;52.456;13.634;2023-02-28T11:42:39;3.10;;;1.30;;
25155;SDS011;21913;52.456;13.634;2023-02-28T12:03:53;3.53;;;1.13;;
25155;SDS011;21913;52.456;13.634;2023-02-28T12:25:47;2.33;;;1.00;;
25155;SDS011;21913;52.456;13.634;2023-02-28T12:31:09;3.43;;;1.27;;
25155;SDS011;21913;52.456;13.634;2023-02-28T12:36:16;4.03;;;1.15;;
25155;SDS011;21913;52.456;13.634;2023-02-28T12:41:27;3.53;;;1.30;;
25155;SDS011;21913;52.456;13.634;2023-02-28T12:46:35;2.72;;;1.10;;
25155;SDS011;21913;52.456;13.634;2023-02-28T12:51:42;3.33;;;1.27;;
25155;SDS011;21913;52.456;13.634;2023-02-28T13:02:06;1.63;;;1.00;;
25155;SDS011;21913;52.456;13.634;2023-02-28T13:07:31;2.83;;;1.10;;
25155;SDS011;21913;52.456;13.634;2023-02-28T13:12:47;5.75;;;1.10;;
25155;SDS011;21913;52.456;13.634;2023-02-28T13:17:50;1.67;;;1.00;;
25155;SDS011;21913;52.456;13.634;2023-02-28T13:22:54;2.30;;;1.17;;
25155;SDS011;21913;52.456;13.634;2023-02-28T13:27:56;2.45;;;1.20;;
25155;SDS011;21913;52.456;13.634;2023-02-28T13:33:17;3.13;;;1.10;;
25155;SDS011;21913;52.456;13.634;2023-02-28T13:38:33;2.55;;;1.00;;
25155;SDS011;21913;52.456;13.634;2023-02-28T13:54:32;4.22;;;2.10;;
25155;SDS011;21913;52.456;13.634;2023-02-28T14:05:38;5.43;;;2.03;;
25155;SDS011;21913;52.456;13.634;2023-02-28T14:11:23;3.63;;;1.90;;
25155;SDS011;21913;52.456;13.634;2023-02-28T14:16:07;4.28;;;2.05;;
25155;SDS011;21913;52.456;13.634;2023-02-28T14:21:11;3.03;;;1.60;;
25155;SDS011;21913;52.456;13.634;2023-02-28T14:37:30;3.72;;;1.60;;
25155;SDS011;21913;52.456;13.634;2023-02-28T14:42:37;3.88;;;1.90;;
25155;SDS011;21913;52.456;13.634;2023-02-28T14:47:39;2.90;;;1.50;;
25155;SDS011;21913;52.456;13.634;2023-02-28T14:52:43;2.42;;;1.40;;
25155;SDS011;21913;52.456;13.634;2023-02-28T15:02:55;4.27;;;1.60;;
25155;SDS011;21913;52.456;13.634;2023-02-28T15:08:11;3.33;;;1.42;;
25155;SDS011;21913;52.456;13.634;2023-02-28T15:13:13;3.53;;;1.55;;
25155;SDS011;21913;52.456;13.634;2023-02-28T15:18:21;3.55;;;1.52;;
25155;SDS011;21913;52.456;13.634;2023-02-28T15:23:23;2.90;;;1.50;;
25155;SDS011;21913;52.456;13.634;2023-02-28T15:28:25;4.00;;;1.40;;
25155;SDS011;21913;52.456;13.634;2023-02-28T15:33:29;2.30;;;1.40;;
25155;SDS011;21913;52.456;13.634;2023-02-28T15:38:34;2.47;;;1.23;;
25155;SDS011;21913;52.456;13.634;2023-02-28T15:43:37;2.90;;;1.40;;
25155;SDS011;21913;52.456;13.634;2023-02-28T15:48:43;3.42;;;1.30;;
25155;SDS011;21913;52.456;13.634;2023-02-28T15:53:53;3.65;;;1.70;;
25155;SDS011;21913;52.456;13.634;2023-02-28T15:59:02;3.05;;;1.60;;
25155;SDS011;21913;52.456;13.634;2023-02-28T16:04:13;2.80;;;1.30;;
25155;SDS011;21913;52.456;13.634;2023-02-28T16:09:17;3.55;;;1.40;;
25155;SDS011;21913;52.456;13.634;2023-02-28T16:14:19;3.40;;;1.50;;
25155;SDS011;21913;52.456;13.634;2023-02-28T16:19:23;2.92;;;1.27;;
25155;SDS011;21913;52.456;13.634;2023-02-28T16:24:24;3.17;;;1.40;;
25155;SDS011;21913;52.456;13.634;2023-02-28T16:29:27;5.93;;;1.50;;
25155;SDS011;21913;52.456;13.634;2023-02-28T16:34:32;3.80;;;1.35;;
25155;SDS011;21913;52.456;13.634;2023-02-28T16:39:33;5.53;;;1.38;;
25155;SDS011;21913;52.456;13.634;2023-02-28T16:44:58;3.60;;;1.50;;
25155;SDS011;21913;52.456;13.634;2023-02-28T16:49:59;4.32;;;1.50;;
25155;SDS011;21913;52.456;13.634;2023-02-28T16:55:01;5.20;;;1.38;;
25155;SDS011;21913;52.456;13.634;2023-02-28T17:00:03;3.25;;;1.42;;
25155;SDS011;21913;52.456;13.634;2023-02-28T17:05:06;3.90;;;1.42;;
25155;SDS011;21913;52.456;13.634;2023-02-28T17:10:19;6.43;;;1.25;;
25155;SDS011;21913;52.456;13.634;2023-02-28T17:15:22;3.17;;;1.33;;
25155;SDS011;21913;52.456;13.634;2023-02-28T17:20:24;2.83;;;1.40;;
25155;SDS011;21913;52.456;13.634;2023-02-28T17:25:26;3.05;;;1.30;;
25155;SDS011;21913;52.456;13.634;2023-02-28T17:30:27;3.47;;;1.52;;
25155;SDS011;21913;52.456;13.634;2023-02-28T17:35:29;2.88;;;1.50;;
25155;SDS011;21913;52.456;13.634;2023-02-28T17:40:31;2.80;;;1.40;;
25155;SDS011;21913;52.456;13.634;2023-02-28T17:45:33;3.40;;;1.45;;
25155;SDS011;21913;52.456;13.634;2023-02-28T17:50:34;4.30;;;1.48;;
25155;SDS011;21913;52.456;13.634;2023-02-28T17:55:36;2.95;;;1.63;;
25155;SDS011;21913;52.456;13.634;2023-02-28T18:00:38;3.28;;;1.73;;
25155;SDS011;21913;52.456;13.634;2023-02-28T18:05:40;3.83;;;1.40;;
25155;SDS011;21913;52.456;13.634;2023-02-28T18:10:42;3.90;;;1.80;;
25155;SDS011;21913;52.456;13.634;2023-02-28T18:15:43;3.35;;;1.60;;
25155;SDS011;21913;52.456;13.634;2023-02-28T18:20:45;4.95;;;2.90;;
25155;SDS011;21913;52.456;13.634;2023-02-28T18:25:48;6.40;;;3.30;;
25155;SDS011;21913;52.456;13.634;2023-02-28T18:30:50;9.27;;;3.45;;
25155;SDS011;21913;52.456;13.634;2023-02-28T18:35:55;5.03;;;3.00;;
25155;SDS011;21913;52.456;13.634;2023-02-28T18:40:58;6.03;;;2.67;;
25155;SDS011;21913;52.456;13.634;2023-02-28T18:46:04;6.18;;;3.00;;
25155;SDS011;21913;52.456;13.634;2023-02-28T18:51:08;5.57;;;2.85;;
25155;SDS011;21913;52.456;13.634;2023-02-28T18:56:12;5.38;;;2.78;;
25155;SDS011;21913;52.456;13.634;2023-02-28T19:01:17;6.18;;;3.05;;
25155;SDS011;21913;52.456;13.634;2023-02-28T19:06:21;4.85;;;2.65;;
25155;SDS011;21913;52.456;13.634;2023-02-28T19:11:22;5.07;;;2.50;;
25155;SDS011;21913;52.456;13.634;2023-02-28T19:16:25;9.90;;;4.40;;
25155;SDS011;21913;52.456;13.634;2023-02-28T19:21:27;10.35;;;3.78;;
25155;SDS011;21913;52.456;13.634;2023-02-28T19:26:29;7.40;;;4.05;;
25155;SDS011;21913;52.456;13.634;2023-02-28T19:31:31;7.85;;;3.60;;
25155;SDS011;21913;52.456;13.634;2023-02-28T19:36:32;9.63;;;4.00;;
25155;SDS011;21913;52.456;13.634;2023-02-28T19:41:37;7.00;;;3.70;;
25155;SDS011;21913;52.456;13.634;2023-02-28T19:46:39;8.65;;;3.80;;
25155;SDS011;21913;52.456;13.634;2023-02-28T19:51:40;7.43;;;3.45;;
25155;SDS011;21913;52.456;13.634;2023-02-28T19:56:42;6.00;;;3.22;;
25155;SDS011;21913;52.456;13.634;2023-02-28T20:01:44;6.47;;;3.35;;
25155;SDS011;21913;52.456;13.634;2023-02-28T20:06:45;6.03;;;3.17;;
25155;SDS011;21913;52.456;13.634;2023-02-28T20:11:47;4.65;;;2.83;;
25155;SDS011;21913;52.456;13.634;2023-02-28T20:16:48;7.00;;;3.55;;
25155;SDS011;21913;52.456;13.634;2023-02-28T20:21:50;6.85;;;3.50;;
25155;SDS011;21913;52.456;13.634;2023-02-28T20:26:52;5.63;;;3.20;;
25155;SDS011;21913;52.456;13.634;2023-02-28T20:31:54;6.90;;;3.13;;
25155;SDS011;21913;52.456;13.634;2023-02-28T20:36:56;6.45;;;3.15;;
25155;SDS011;21913;52.456;13.634;2023-02-28T20:41:58;5.45;;;3.10;;
25155;SDS011;21913;52.456;13.634;2023-02-28T20:47:00;4.95;;;2.97;;
25155;SDS011;21913;52.456;13.634;2023-02-28T20:52:01;6.18;;;2.95;;
25155;SDS011;21913;52.456;13.634;2023-02-28T20:57:03;5.63;;;3.00;;
25155;SDS011;21913;52.456;13.634;2023-02-28T21:02:05;6.25;;;3.22;;
25155;SDS011;21913;52.456;13.634;2023-02-28T21:07:07;5.47;;;3.22;;
25155;SDS011;21913;52.456;13.634;2023-02-28T21:12:09;5.15;;;2.97;;
25155;SDS011;21913;52.456;13.634;2023-02-28T21:17:10;6.78;;;2.92;;
25155;SDS011;21913;52.456;13.634;2023-02-28T21:22:12;5.57;;;3.10;;
25155;SDS011;21913;52.456;13.634;2023-02-28T21:27:14;4.80;;;2.72;;
25155;SDS011;21913;52.456;13.634;2023-02-28T21:32:15;5.90;;;2.80;;
25155;SDS011;21913;52.456;13.634;2023-02-28T21:37:17;4.85;;;2.90;;
25155;SDS011;21913;52.456;13.634;2023-02-28T21:42:18;4.82;;;2.85;;
25155;SDS011;21913;52.456;13.634;2023-02-28T21:47:20;4.65;;;2.65;;
25155;SDS011;21913;52.456;13.634;2023-02-28T21:52:22;4.63;;;2.53;;
25155;SDS011;21913;52.456;13.634;2023-02-28T21:57:23;6.50;;;2.70;;
25155;SDS011;21913;52.456;13.634;2023-02-28T22:02:25;5.03;;;2.78;;
25155;SDS011;21913;52.456;13.634;2023-02-28T22:07:29;4.88;;;2.72;;
25155;SDS011;21913;52.456;13.634;2023-02-28T22:12:30;6.10;;;2.97;;
25155;SDS011;21913;52.456;13.634;2023-02-28T22:17:32;4.80;;;2.45;;
25155;SDS011;21913;52.456;13.634;2023-02-28T22:22:34;5.55;;;2.80;;
25155;SDS011;21913;52.456;13.634;2023-02-28T22:27:35;3.50;;;2.33;;
25155;SDS011;21913;52.456;13.634;2023-02-28T22:32:37;5.63;;;2.45;;
25155;SDS011;21913;52.456;13.634;2023-02-28T22:37:38;6.38;;;2.60;;
25155;SDS011;21913;52.456;13.634;2023-02-28T22:42:40;5.13;;;2.50;;
25155;SDS011;21913;52.456;13.634;2023-02-28T22:47:42;5.30;;;2.63;;
25155;SDS011;21913;52.456;13.634;2023-02-28T22:52:43;4.22;;;2.60;;
25155;SDS011;21913;52.456;13.634;2023-02-28T22:57:45;4.20;;;2.42;;
25155;SDS011;21913;52.456;13.634;2023-02-28T23:02:46;4.03;;;2.45;;
25155;SDS011;21913;52.456;13.634;2023-02-28T23:07:48;4.85;;;2.67;;
25155;SDS011;21913;52.456;13.634;2023-02-28T23:12:50;4.68;;;2.40;;
25155;SDS011;21913;52.456;13.634;2023-02-28T23:17:52;4.13;;;2.55;;
25155;SDS011;21913;52.456;13.634;2023-02-28T23:22:53;4.10;;;2.67;;
25155;SDS011;21913;52.456;13.634;2023-02-28T23:27:55;3.83;;;2.50;;
25155;SDS011;21913;52.456;13.634;2023-02-28T23:32:56;6.95;;;2.67;;
25155;SDS011;21913;52.456;13.634;2023-02-28T23:37:58;5.13;;;2.60;;
25155;SDS011;21913;52.456;13.634;2023-02-28T23:43:00;7.07;;;2.90;;
25155;SDS011;21913;52.456;13.634;2023-02-28T23:48:02;5.72;;;2.67;;
25155;SDS011;21913;52.456;13.634;2023-02-28T23:53:04;6.32;;;2.70;;
25155;SDS011;21913;52.456;13.634;2023-02-28T23:58:05;5.78;;;2.65;;
